sensor_id;sensor_type;location;lat;lon;timestamp;temperature;humidity
70300;HTU21D;57704;51.112;5.878;2023-07-28T00:00:26;18.83;86.75
70300;HTU21D;57704;51.112;5.878;2023-07-28T00:02:53;18.87;86.72
70300;HTU21D;57704;51.112;5.878;2023-07-28T00:05:19;18.88;86.58
70300;HTU21D;57704;51.112;5.878;2023-07-28T00:08:11;18.91;86.53
70300;HTU21D;57704;51.112;5.878;2023-07-28T00:10:41;18.93;86.36
70300;HTU21D;57704;51.112;5.878;2023-07-28T00:13:09;18.92;86.35
70300;HTU21D;57704;51.112;5.878;2023-07-28T00:15:35;18.94;86.45
70300;HTU21D;57704;51.112;5.878;2023-07-28T00:18:02;18.95;86.34
70300;HTU21D;57704;51.112;5.878;2023-07-28T00:20:28;19.00;86.19
70300;HTU21D;57704;51.112;5.878;2023-07-28T00:22:55;19.00;86.22
70300;HTU21D;57704;51.112;5.878;2023-07-28T00:25:21;18.99;86.10
70300;HTU21D;57704;51.112;5.878;2023-07-28T00:27:50;18.96;86.12
70300;HTU21D;57704;51.112;5.878;2023-07-28T00:30:17;18.93;86.31
70300;HTU21D;57704;51.112;5.878;2023-07-28T00:32:44;18.94;86.35
70300;HTU21D;57704;51.112;5.878;2023-07-28T00:35:11;18.96;86.20
70300;HTU21D;57704;51.112;5.878;2023-07-28T00:37:38;18.94;86.35
70300;HTU21D;57704;51.112;5.878;2023-07-28T00:40:07;18.97;86.48
70300;HTU21D;57704;51.112;5.878;2023-07-28T00:42:33;18.97;86.36
70300;HTU21D;57704;51.112;5.878;2023-07-28T00:45:21;18.99;86.29
70300;HTU21D;57704;51.112;5.878;2023-07-28T00:47:48;18.93;86.47
70300;HTU21D;57704;51.112;5.878;2023-07-28T00:50:14;18.89;86.59
70300;HTU21D;57704;51.112;5.878;2023-07-28T00:52:41;18.87;86.80
70300;HTU21D;57704;51.112;5.878;2023-07-28T00:55:08;18.85;86.90
70300;HTU21D;57704;51.112;5.878;2023-07-28T00:57:34;18.88;86.83
70300;HTU21D;57704;51.112;5.878;2023-07-28T01:00:01;18.88;86.93
70300;HTU21D;57704;51.112;5.878;2023-07-28T01:02:28;18.87;87.03
70300;HTU21D;57704;51.112;5.878;2023-07-28T01:04:55;18.85;87.06
70300;HTU21D;57704;51.112;5.878;2023-07-28T01:07:51;18.86;87.09
70300;HTU21D;57704;51.112;5.878;2023-07-28T01:10:28;18.87;87.12
70300;HTU21D;57704;51.112;5.878;2023-07-28T01:12:56;18.86;87.19
70300;HTU21D;57704;51.112;5.878;2023-07-28T01:15:22;18.83;87.08
70300;HTU21D;57704;51.112;5.878;2023-07-28T01:17:52;18.84;87.35
70300;HTU21D;57704;51.112;5.878;2023-07-28T01:20:22;18.87;87.16
70300;HTU21D;57704;51.112;5.878;2023-07-28T01:23:09;18.87;87.23
70300;HTU21D;57704;51.112;5.878;2023-07-28T01:26:02;18.87;87.33
70300;HTU21D;57704;51.112;5.878;2023-07-28T01:28:34;18.83;87.32
70300;HTU21D;57704;51.112;5.878;2023-07-28T01:31:06;18.84;87.44
70300;HTU21D;57704;51.112;5.878;2023-07-28T01:33:32;18.84;87.29
70300;HTU21D;57704;51.112;5.878;2023-07-28T01:35:59;18.84;87.40
70300;HTU21D;57704;51.112;5.878;2023-07-28T01:38:28;18.85;87.57
70300;HTU21D;57704;51.112;5.878;2023-07-28T01:40:55;18.86;87.31
70300;HTU21D;57704;51.112;5.878;2023-07-28T01:43:21;18.85;87.39
70300;HTU21D;57704;51.112;5.878;2023-07-28T01:45:48;18.82;87.52
70300;HTU21D;57704;51.112;5.878;2023-07-28T01:48:15;18.81;87.62
70300;HTU21D;57704;51.112;5.878;2023-07-28T01:50:42;18.83;87.67
70300;HTU21D;57704;51.112;5.878;2023-07-28T01:53:08;18.86;87.64
70300;HTU21D;57704;51.112;5.878;2023-07-28T01:55:35;18.89;87.61
70300;HTU21D;57704;51.112;5.878;2023-07-28T01:58:02;18.89;87.53
70300;HTU21D;57704;51.112;5.878;2023-07-28T02:00:33;18.89;87.58
70300;HTU21D;57704;51.112;5.878;2023-07-28T02:03:00;18.84;87.67
70300;HTU21D;57704;51.112;5.878;2023-07-28T02:05:28;18.82;87.73
70300;HTU21D;57704;51.112;5.878;2023-07-28T02:07:56;18.81;87.80
70300;HTU21D;57704;51.112;5.878;2023-07-28T02:10:23;18.82;87.87
70300;HTU21D;57704;51.112;5.878;2023-07-28T02:12:50;18.82;87.92
70300;HTU21D;57704;51.112;5.878;2023-07-28T02:15:18;18.83;87.96
70300;HTU21D;57704;51.112;5.878;2023-07-28T02:17:44;18.84;87.88
70300;HTU21D;57704;51.112;5.878;2023-07-28T02:20:11;18.82;87.96
70300;HTU21D;57704;51.112;5.878;2023-07-28T02:22:39;18.85;87.86
70300;HTU21D;57704;51.112;5.878;2023-07-28T02:25:07;18.84;87.98
70300;HTU21D;57704;51.112;5.878;2023-07-28T02:27:54;18.86;87.92
70300;HTU21D;57704;51.112;5.878;2023-07-28T02:30:21;18.86;87.90
70300;HTU21D;57704;51.112;5.878;2023-07-28T02:32:49;18.84;87.99
70300;HTU21D;57704;51.112;5.878;2023-07-28T02:35:17;18.82;87.92
70300;HTU21D;57704;51.112;5.878;2023-07-28T02:37:43;18.82;88.05
70300;HTU21D;57704;51.112;5.878;2023-07-28T02:40:10;18.82;88.12
70300;HTU21D;57704;51.112;5.878;2023-07-28T02:42:36;18.83;88.08
70300;HTU21D;57704;51.112;5.878;2023-07-28T02:45:03;18.83;88.09
70300;HTU21D;57704;51.112;5.878;2023-07-28T02:47:30;18.85;88.00
70300;HTU21D;57704;51.112;5.878;2023-07-28T02:49:56;18.83;88.12
70300;HTU21D;57704;51.112;5.878;2023-07-28T02:52:23;18.81;88.13
70300;HTU21D;57704;51.112;5.878;2023-07-28T02:54:50;18.81;88.14
70300;HTU21D;57704;51.112;5.878;2023-07-28T02:57:51;18.80;88.18
70300;HTU21D;57704;51.112;5.878;2023-07-28T03:00:17;18.81;88.34
70300;HTU21D;57704;51.112;5.878;2023-07-28T03:02:44;18.81;88.35
70300;HTU21D;57704;51.112;5.878;2023-07-28T03:05:37;18.83;88.38
70300;HTU21D;57704;51.112;5.878;2023-07-28T03:08:25;18.84;88.28
70300;HTU21D;57704;51.112;5.878;2023-07-28T03:10:58;18.84;88.28
70300;HTU21D;57704;51.112;5.878;2023-07-28T03:13:36;18.82;88.31
70300;HTU21D;57704;51.112;5.878;2023-07-28T03:16:03;18.82;88.37
70300;HTU21D;57704;51.112;5.878;2023-07-28T03:18:30;18.83;88.39
70300;HTU21D;57704;51.112;5.878;2023-07-28T03:20:56;18.82;88.31
70300;HTU21D;57704;51.112;5.878;2023-07-28T03:23:22;18.80;88.54
70300;HTU21D;57704;51.112;5.878;2023-07-28T03:25:49;18.82;88.47
70300;HTU21D;57704;51.112;5.878;2023-07-28T03:28:28;18.81;88.54
70300;HTU21D;57704;51.112;5.878;2023-07-28T03:30:55;18.83;88.55
70300;HTU21D;57704;51.112;5.878;2023-07-28T03:33:21;18.86;88.52
70300;HTU21D;57704;51.112;5.878;2023-07-28T03:35:50;18.91;88.60
70300;HTU21D;57704;51.112;5.878;2023-07-28T03:38:18;18.92;88.40
70300;HTU21D;57704;51.112;5.878;2023-07-28T03:40:45;18.95;88.39
70300;HTU21D;57704;51.112;5.878;2023-07-28T03:43:12;18.96;88.52
70300;HTU21D;57704;51.112;5.878;2023-07-28T03:45:38;18.95;88.43
70300;HTU21D;57704;51.112;5.878;2023-07-28T03:48:04;18.95;88.44
70300;HTU21D;57704;51.112;5.878;2023-07-28T03:50:31;18.98;88.43
70300;HTU21D;57704;51.112;5.878;2023-07-28T03:52:57;19.00;88.33
70300;HTU21D;57704;51.112;5.878;2023-07-28T03:55:24;18.99;88.25
70300;HTU21D;57704;51.112;5.878;2023-07-28T03:57:51;18.96;88.35
70300;HTU21D;57704;51.112;5.878;2023-07-28T04:00:18;18.98;88.41
70300;HTU21D;57704;51.112;5.878;2023-07-28T04:02:47;18.99;88.41
70300;HTU21D;57704;51.112;5.878;2023-07-28T04:05:13;19.02;88.41
70300;HTU21D;57704;51.112;5.878;2023-07-28T04:07:40;19.02;88.44
70300;HTU21D;57704;51.112;5.878;2023-07-28T04:10:07;19.06;88.34
70300;HTU21D;57704;51.112;5.878;2023-07-28T04:12:36;19.02;88.22
70300;HTU21D;57704;51.112;5.878;2023-07-28T04:15:02;19.02;88.40
70300;HTU21D;57704;51.112;5.878;2023-07-28T04:17:30;19.07;88.41
70300;HTU21D;57704;51.112;5.878;2023-07-28T04:19:58;19.08;88.38
70300;HTU21D;57704;51.112;5.878;2023-07-28T04:22:27;19.11;88.24
70300;HTU21D;57704;51.112;5.878;2023-07-28T04:24:54;19.12;88.28
70300;HTU21D;57704;51.112;5.878;2023-07-28T04:27:20;19.11;88.24
70300;HTU21D;57704;51.112;5.878;2023-07-28T04:29:57;19.13;88.38
70300;HTU21D;57704;51.112;5.878;2023-07-28T04:32:24;19.15;88.44
70300;HTU21D;57704;51.112;5.878;2023-07-28T04:34:53;19.13;88.28
70300;HTU21D;57704;51.112;5.878;2023-07-28T04:37:40;19.16;88.35
70300;HTU21D;57704;51.112;5.878;2023-07-28T04:40:07;19.15;88.29
70300;HTU21D;57704;51.112;5.878;2023-07-28T04:42:36;19.16;88.32
70300;HTU21D;57704;51.112;5.878;2023-07-28T04:45:03;19.18;88.30
70300;HTU21D;57704;51.112;5.878;2023-07-28T04:47:31;19.20;88.35
70300;HTU21D;57704;51.112;5.878;2023-07-28T04:49:58;19.20;88.32
70300;HTU21D;57704;51.112;5.878;2023-07-28T04:52:44;19.18;88.20
70300;HTU21D;57704;51.112;5.878;2023-07-28T04:55:29;19.18;88.35
70300;HTU21D;57704;51.112;5.878;2023-07-28T04:58:01;19.20;88.13
70300;HTU21D;57704;51.112;5.878;2023-07-28T05:00:36;19.20;88.41
70300;HTU21D;57704;51.112;5.878;2023-07-28T05:03:03;19.21;88.30
70300;HTU21D;57704;51.112;5.878;2023-07-28T05:05:34;19.23;88.23
70300;HTU21D;57704;51.112;5.878;2023-07-28T05:08:04;19.22;88.30
70300;HTU21D;57704;51.112;5.878;2023-07-28T05:10:33;19.22;88.25
70300;HTU21D;57704;51.112;5.878;2023-07-28T05:12:59;19.22;88.38
70300;HTU21D;57704;51.112;5.878;2023-07-28T05:15:26;19.27;88.47
70300;HTU21D;57704;51.112;5.878;2023-07-28T05:17:51;19.29;88.29
70300;HTU21D;57704;51.112;5.878;2023-07-28T05:20:53;19.29;88.28
70300;HTU21D;57704;51.112;5.878;2023-07-28T05:23:20;19.29;88.30
70300;HTU21D;57704;51.112;5.878;2023-07-28T05:25:49;19.29;88.29
70300;HTU21D;57704;51.112;5.878;2023-07-28T05:28:16;19.33;88.38
70300;HTU21D;57704;51.112;5.878;2023-07-28T05:30:44;19.32;88.25
70300;HTU21D;57704;51.112;5.878;2023-07-28T05:33:09;19.30;88.41
70300;HTU21D;57704;51.112;5.878;2023-07-28T05:35:47;19.28;88.41
70300;HTU21D;57704;51.112;5.878;2023-07-28T05:38:13;19.30;88.44
70300;HTU21D;57704;51.112;5.878;2023-07-28T05:40:39;19.30;88.41
70300;HTU21D;57704;51.112;5.878;2023-07-28T05:43:05;19.29;88.36
70300;HTU21D;57704;51.112;5.878;2023-07-28T05:45:31;19.28;88.60
70300;HTU21D;57704;51.112;5.878;2023-07-28T05:47:58;19.32;88.51
70300;HTU21D;57704;51.112;5.878;2023-07-28T05:50:24;19.35;88.53
70300;HTU21D;57704;51.112;5.878;2023-07-28T05:52:50;19.37;88.55
70300;HTU21D;57704;51.112;5.878;2023-07-28T05:55:16;19.37;88.33
70300;HTU21D;57704;51.112;5.878;2023-07-28T05:57:42;19.35;88.34
70300;HTU21D;57704;51.112;5.878;2023-07-28T06:00:09;19.33;88.57
70300;HTU21D;57704;51.112;5.878;2023-07-28T06:02:42;19.32;88.37
70300;HTU21D;57704;51.112;5.878;2023-07-28T06:05:14;19.37;88.61
70300;HTU21D;57704;51.112;5.878;2023-07-28T06:07:40;19.37;88.51
70300;HTU21D;57704;51.112;5.878;2023-07-28T06:10:07;19.38;88.54
70300;HTU21D;57704;51.112;5.878;2023-07-28T06:12:33;19.42;88.52
70300;HTU21D;57704;51.112;5.878;2023-07-28T06:14:59;19.46;88.47
70300;HTU21D;57704;51.112;5.878;2023-07-28T06:17:25;19.50;88.38
70300;HTU21D;57704;51.112;5.878;2023-07-28T06:19:53;19.50;88.13
70300;HTU21D;57704;51.112;5.878;2023-07-28T06:22:19;19.47;88.27
70300;HTU21D;57704;51.112;5.878;2023-07-28T06:24:45;19.48;88.33
70300;HTU21D;57704;51.112;5.878;2023-07-28T06:27:11;19.52;88.41
70300;HTU21D;57704;51.112;5.878;2023-07-28T06:29:38;19.56;88.35
70300;HTU21D;57704;51.112;5.878;2023-07-28T06:32:04;19.57;88.20
70300;HTU21D;57704;51.112;5.878;2023-07-28T06:34:31;19.56;88.16
70300;HTU21D;57704;51.112;5.878;2023-07-28T06:36:57;19.61;88.23
70300;HTU21D;57704;51.112;5.878;2023-07-28T06:39:23;19.62;88.15
70300;HTU21D;57704;51.112;5.878;2023-07-28T06:41:50;19.61;88.19
70300;HTU21D;57704;51.112;5.878;2023-07-28T06:44:16;19.67;88.26
70300;HTU21D;57704;51.112;5.878;2023-07-28T06:46:43;19.72;88.07
70300;HTU21D;57704;51.112;5.878;2023-07-28T06:49:09;19.69;87.79
70300;HTU21D;57704;51.112;5.878;2023-07-28T06:51:34;19.67;87.89
70300;HTU21D;57704;51.112;5.878;2023-07-28T06:54:00;19.63;87.95
70300;HTU21D;57704;51.112;5.878;2023-07-28T06:56:26;19.63;88.07
70300;HTU21D;57704;51.112;5.878;2023-07-28T06:58:52;19.67;88.06
70300;HTU21D;57704;51.112;5.878;2023-07-28T07:01:18;19.71;88.02
70300;HTU21D;57704;51.112;5.878;2023-07-28T07:03:44;19.72;88.06
70300;HTU21D;57704;51.112;5.878;2023-07-28T07:06:10;19.72;87.91
70300;HTU21D;57704;51.112;5.878;2023-07-28T07:08:37;19.76;87.99
70300;HTU21D;57704;51.112;5.878;2023-07-28T07:11:04;19.85;88.06
70300;HTU21D;57704;51.112;5.878;2023-07-28T07:13:31;19.92;88.09
70300;HTU21D;57704;51.112;5.878;2023-07-28T07:15:57;20.02;87.91
70300;HTU21D;57704;51.112;5.878;2023-07-28T07:18:23;20.07;87.69
70300;HTU21D;57704;51.112;5.878;2023-07-28T07:20:49;20.15;87.53
70300;HTU21D;57704;51.112;5.878;2023-07-28T07:23:15;20.17;87.32
70300;HTU21D;57704;51.112;5.878;2023-07-28T07:25:41;20.16;87.10
70300;HTU21D;57704;51.112;5.878;2023-07-28T07:28:07;20.15;87.22
70300;HTU21D;57704;51.112;5.878;2023-07-28T07:30:33;20.17;87.19
70300;HTU21D;57704;51.112;5.878;2023-07-28T07:32:59;20.21;87.35
70300;HTU21D;57704;51.112;5.878;2023-07-28T07:35:25;20.26;87.06
70300;HTU21D;57704;51.112;5.878;2023-07-28T07:37:51;20.21;86.80
70300;HTU21D;57704;51.112;5.878;2023-07-28T07:40:17;20.20;86.81
70300;HTU21D;57704;51.112;5.878;2023-07-28T07:42:48;20.19;86.97
70300;HTU21D;57704;51.112;5.878;2023-07-28T07:45:15;20.18;86.99
70300;HTU21D;57704;51.112;5.878;2023-07-28T07:47:42;20.16;86.90
70300;HTU21D;57704;51.112;5.878;2023-07-28T07:50:09;20.18;87.15
70300;HTU21D;57704;51.112;5.878;2023-07-28T07:52:36;20.25;87.22
70300;HTU21D;57704;51.112;5.878;2023-07-28T07:55:03;20.34;87.22
70300;HTU21D;57704;51.112;5.878;2023-07-28T07:57:30;20.42;86.84
70300;HTU21D;57704;51.112;5.878;2023-07-28T07:59:57;20.45;86.86
70300;HTU21D;57704;51.112;5.878;2023-07-28T08:02:23;20.57;87.11
70300;HTU21D;57704;51.112;5.878;2023-07-28T08:04:51;20.76;86.99
70300;HTU21D;57704;51.112;5.878;2023-07-28T08:07:17;20.93;86.82
70300;HTU21D;57704;51.112;5.878;2023-07-28T08:09:43;21.08;86.17
70300;HTU21D;57704;51.112;5.878;2023-07-28T08:12:09;21.17;85.77
70300;HTU21D;57704;51.112;5.878;2023-07-28T08:14:35;21.21;85.68
70300;HTU21D;57704;51.112;5.878;2023-07-28T08:17:02;21.31;85.20
70300;HTU21D;57704;51.112;5.878;2023-07-28T08:19:27;21.30;85.26
70300;HTU21D;57704;51.112;5.878;2023-07-28T08:21:53;21.35;85.21
70300;HTU21D;57704;51.112;5.878;2023-07-28T08:24:19;21.42;85.25
70300;HTU21D;57704;51.112;5.878;2023-07-28T08:26:46;21.49;84.59
70300;HTU21D;57704;51.112;5.878;2023-07-28T08:29:13;21.48;84.62
70300;HTU21D;57704;51.112;5.878;2023-07-28T08:31:38;21.54;84.74
70300;HTU21D;57704;51.112;5.878;2023-07-28T08:34:04;21.67;84.80
70300;HTU21D;57704;51.112;5.878;2023-07-28T08:36:30;21.79;84.62
70300;HTU21D;57704;51.112;5.878;2023-07-28T08:38:56;21.81;83.94
70300;HTU21D;57704;51.112;5.878;2023-07-28T08:41:22;21.80;84.28
70300;HTU21D;57704;51.112;5.878;2023-07-28T08:43:48;21.85;83.78
70300;HTU21D;57704;51.112;5.878;2023-07-28T08:46:16;21.85;83.70
70300;HTU21D;57704;51.112;5.878;2023-07-28T08:48:42;21.81;83.42
70300;HTU21D;57704;51.112;5.878;2023-07-28T08:51:09;21.73;83.46
70300;HTU21D;57704;51.112;5.878;2023-07-28T08:53:37;21.79;84.07
70300;HTU21D;57704;51.112;5.878;2023-07-28T08:56:06;21.91;83.16
70300;HTU21D;57704;51.112;5.878;2023-07-28T08:58:32;21.89;83.11
70300;HTU21D;57704;51.112;5.878;2023-07-28T09:01:02;21.84;83.05
70300;HTU21D;57704;51.112;5.878;2023-07-28T09:03:29;21.88;82.84
70300;HTU21D;57704;51.112;5.878;2023-07-28T09:06:00;21.93;82.63
70300;HTU21D;57704;51.112;5.878;2023-07-28T09:08:27;21.99;82.52
70300;HTU21D;57704;51.112;5.878;2023-07-28T09:10:53;21.99;82.58
70300;HTU21D;57704;51.112;5.878;2023-07-28T09:13:22;21.99;82.24
70300;HTU21D;57704;51.112;5.878;2023-07-28T09:15:48;22.01;82.39
70300;HTU21D;57704;51.112;5.878;2023-07-28T09:18:17;22.07;82.26
70300;HTU21D;57704;51.112;5.878;2023-07-28T09:20:43;22.10;82.07
70300;HTU21D;57704;51.112;5.878;2023-07-28T09:23:10;22.13;81.80
70300;HTU21D;57704;51.112;5.878;2023-07-28T09:25:37;22.10;81.55
70300;HTU21D;57704;51.112;5.878;2023-07-28T09:28:04;22.01;82.32
70300;HTU21D;57704;51.112;5.878;2023-07-28T09:30:48;21.83;82.45
70300;HTU21D;57704;51.112;5.878;2023-07-28T09:33:29;21.76;83.32
70300;HTU21D;57704;51.112;5.878;2023-07-28T09:35:55;21.77;83.72
70300;HTU21D;57704;51.112;5.878;2023-07-28T09:38:22;21.92;84.80
70300;HTU21D;57704;51.112;5.878;2023-07-28T09:40:49;22.38;85.54
70300;HTU21D;57704;51.112;5.878;2023-07-28T09:43:14;22.78;84.52
70300;HTU21D;57704;51.112;5.878;2023-07-28T09:45:42;23.07;83.25
70300;HTU21D;57704;51.112;5.878;2023-07-28T09:48:11;23.26;81.97
70300;HTU21D;57704;51.112;5.878;2023-07-28T09:50:39;23.12;79.18
70300;HTU21D;57704;51.112;5.878;2023-07-28T09:53:09;22.79;80.49
70300;HTU21D;57704;51.112;5.878;2023-07-28T09:55:39;22.57;81.45
70300;HTU21D;57704;51.112;5.878;2023-07-28T09:58:10;22.50;82.02
70300;HTU21D;57704;51.112;5.878;2023-07-28T10:00:37;22.63;81.88
70300;HTU21D;57704;51.112;5.878;2023-07-28T10:03:04;22.83;82.20
70300;HTU21D;57704;51.112;5.878;2023-07-28T10:05:31;22.99;81.72
70300;HTU21D;57704;51.112;5.878;2023-07-28T10:08:01;23.11;80.66
70300;HTU21D;57704;51.112;5.878;2023-07-28T10:10:29;23.07;80.29
70300;HTU21D;57704;51.112;5.878;2023-07-28T10:12:58;22.98;80.33
70300;HTU21D;57704;51.112;5.878;2023-07-28T10:15:29;22.98;80.27
70300;HTU21D;57704;51.112;5.878;2023-07-28T10:17:58;23.07;80.24
70300;HTU21D;57704;51.112;5.878;2023-07-28T10:20:36;23.16;80.09
70300;HTU21D;57704;51.112;5.878;2023-07-28T10:23:04;23.31;79.35
70300;HTU21D;57704;51.112;5.878;2023-07-28T10:25:36;23.44;79.33
70300;HTU21D;57704;51.112;5.878;2023-07-28T10:28:03;23.59;77.75
70300;HTU21D;57704;51.112;5.878;2023-07-28T10:30:36;23.67;75.91
70300;HTU21D;57704;51.112;5.878;2023-07-28T10:33:02;23.75;76.10
70300;HTU21D;57704;51.112;5.878;2023-07-28T10:35:28;23.91;77.50
70300;HTU21D;57704;51.112;5.878;2023-07-28T10:37:56;24.33;76.76
70300;HTU21D;57704;51.112;5.878;2023-07-28T10:42:50;24.99;75.73
70300;HTU21D;57704;51.112;5.878;2023-07-28T10:45:16;25.43;75.08
70300;HTU21D;57704;51.112;5.878;2023-07-28T10:47:42;25.97;73.34
70300;HTU21D;57704;51.112;5.878;2023-07-28T10:50:10;26.18;71.26
70300;HTU21D;57704;51.112;5.878;2023-07-28T10:52:42;26.05;71.15
70300;HTU21D;57704;51.112;5.878;2023-07-28T10:55:20;25.86;71.84
70300;HTU21D;57704;51.112;5.878;2023-07-28T10:57:49;25.68;72.44
70300;HTU21D;57704;51.112;5.878;2023-07-28T11:00:17;25.86;72.83
70300;HTU21D;57704;51.112;5.878;2023-07-28T11:02:46;26.23;72.05
70300;HTU21D;57704;51.112;5.878;2023-07-28T11:05:26;26.61;70.64
70300;HTU21D;57704;51.112;5.878;2023-07-28T11:08:00;26.90;70.71
70300;HTU21D;57704;51.112;5.878;2023-07-28T11:10:32;27.15;68.91
70300;HTU21D;57704;51.112;5.878;2023-07-28T11:13:00;27.19;68.23
70300;HTU21D;57704;51.112;5.878;2023-07-28T11:15:26;27.27;68.75
70300;HTU21D;57704;51.112;5.878;2023-07-28T11:17:53;27.35;67.42
70300;HTU21D;57704;51.112;5.878;2023-07-28T11:20:24;27.50;67.53
70300;HTU21D;57704;51.112;5.878;2023-07-28T11:25:26;28.06;64.71
70300;HTU21D;57704;51.112;5.878;2023-07-28T11:27:52;27.84;65.32
70300;HTU21D;57704;51.112;5.878;2023-07-28T11:30:19;27.27;66.24
70300;HTU21D;57704;51.112;5.878;2023-07-28T11:32:49;26.83;67.57
70300;HTU21D;57704;51.112;5.878;2023-07-28T11:35:17;26.47;67.27
70300;HTU21D;57704;51.112;5.878;2023-07-28T11:37:46;26.20;69.55
70300;HTU21D;57704;51.112;5.878;2023-07-28T11:40:14;26.21;70.87
70300;HTU21D;57704;51.112;5.878;2023-07-28T11:42:44;26.55;69.81
70300;HTU21D;57704;51.112;5.878;2023-07-28T11:45:13;26.98;69.96
70300;HTU21D;57704;51.112;5.878;2023-07-28T11:47:39;27.70;68.83
70300;HTU21D;57704;51.112;5.878;2023-07-28T11:50:05;28.68;67.21
70300;HTU21D;57704;51.112;5.878;2023-07-28T11:52:36;29.59;64.89
70300;HTU21D;57704;51.112;5.878;2023-07-28T11:55:05;30.57;62.92
70300;HTU21D;57704;51.112;5.878;2023-07-28T11:57:32;31.35;61.05
70300;HTU21D;57704;51.112;5.878;2023-07-28T11:59:59;31.85;56.93
70300;HTU21D;57704;51.112;5.878;2023-07-28T12:02:32;31.57;56.26
70300;HTU21D;57704;51.112;5.878;2023-07-28T12:04:59;30.53;59.28
70300;HTU21D;57704;51.112;5.878;2023-07-28T12:07:31;29.73;60.80
70300;HTU21D;57704;51.112;5.878;2023-07-28T12:10:05;29.15;61.50
70300;HTU21D;57704;51.112;5.878;2023-07-28T12:12:43;28.27;63.12
70300;HTU21D;57704;51.112;5.878;2023-07-28T12:15:26;27.59;64.18
70300;HTU21D;57704;51.112;5.878;2023-07-28T12:18:15;26.68;65.01
70300;HTU21D;57704;51.112;5.878;2023-07-28T12:20:44;26.04;67.95
70300;HTU21D;57704;51.112;5.878;2023-07-28T12:23:16;25.58;69.27
70300;HTU21D;57704;51.112;5.878;2023-07-28T12:25:43;24.85;71.36
70300;HTU21D;57704;51.112;5.878;2023-07-28T12:28:11;24.26;73.35
70300;HTU21D;57704;51.112;5.878;2023-07-28T12:30:38;23.85;75.21
70300;HTU21D;57704;51.112;5.878;2023-07-28T12:33:05;23.55;76.53
70300;HTU21D;57704;51.112;5.878;2023-07-28T12:35:33;23.52;78.15
70300;HTU21D;57704;51.112;5.878;2023-07-28T12:38:03;23.82;78.45
70300;HTU21D;57704;51.112;5.878;2023-07-28T12:40:32;24.10;77.40
70300;HTU21D;57704;51.112;5.878;2023-07-28T12:43:02;24.32;78.13
70300;HTU21D;57704;51.112;5.878;2023-07-28T12:45:28;24.51;76.82
70300;HTU21D;57704;51.112;5.878;2023-07-28T12:47:55;24.41;76.97
70300;HTU21D;57704;51.112;5.878;2023-07-28T12:50:22;24.28;77.40
70300;HTU21D;57704;51.112;5.878;2023-07-28T12:52:49;24.18;78.06
70300;HTU21D;57704;51.112;5.878;2023-07-28T12:55:17;24.23;78.11
70300;HTU21D;57704;51.112;5.878;2023-07-28T12:57:44;24.26;77.82
70300;HTU21D;57704;51.112;5.878;2023-07-28T13:00:11;24.17;78.02
70300;HTU21D;57704;51.112;5.878;2023-07-28T13:02:43;24.10;78.18
70300;HTU21D;57704;51.112;5.878;2023-07-28T13:05:11;24.01;78.07
70300;HTU21D;57704;51.112;5.878;2023-07-28T13:07:38;23.83;78.69
70300;HTU21D;57704;51.112;5.878;2023-07-28T13:10:05;23.67;79.04
70300;HTU21D;57704;51.112;5.878;2023-07-28T13:12:31;23.46;80.07
70300;HTU21D;57704;51.112;5.878;2023-07-28T13:14:57;23.35;80.92
70300;HTU21D;57704;51.112;5.878;2023-07-28T13:17:23;23.23;80.91
70300;HTU21D;57704;51.112;5.878;2023-07-28T13:19:49;23.03;81.86
70300;HTU21D;57704;51.112;5.878;2023-07-28T13:22:15;22.95;82.45
70300;HTU21D;57704;51.112;5.878;2023-07-28T13:24:40;23.03;83.05
70300;HTU21D;57704;51.112;5.878;2023-07-28T13:27:07;23.20;82.60
70300;HTU21D;57704;51.112;5.878;2023-07-28T13:29:33;23.22;82.42
70300;HTU21D;57704;51.112;5.878;2023-07-28T13:31:59;23.30;83.18
70300;HTU21D;57704;51.112;5.878;2023-07-28T13:34:26;23.49;83.05
70300;HTU21D;57704;51.112;5.878;2023-07-28T13:36:54;23.59;82.11
70300;HTU21D;57704;51.112;5.878;2023-07-28T13:39:20;23.72;82.48
70300;HTU21D;57704;51.112;5.878;2023-07-28T13:41:46;23.84;82.17
70300;HTU21D;57704;51.112;5.878;2023-07-28T13:44:12;23.94;82.22
70300;HTU21D;57704;51.112;5.878;2023-07-28T13:46:38;24.20;82.30
70300;HTU21D;57704;51.112;5.878;2023-07-28T13:49:04;24.39;81.45
70300;HTU21D;57704;51.112;5.878;2023-07-28T13:51:30;24.33;80.91
70300;HTU21D;57704;51.112;5.878;2023-07-28T13:53:56;24.25;81.46
70300;HTU21D;57704;51.112;5.878;2023-07-28T13:56:22;24.15;80.97
70300;HTU21D;57704;51.112;5.878;2023-07-28T13:58:48;24.05;82.05
70300;HTU21D;57704;51.112;5.878;2023-07-28T14:01:14;24.10;81.59
70300;HTU21D;57704;51.112;5.878;2023-07-28T14:03:40;24.00;81.14
70300;HTU21D;57704;51.112;5.878;2023-07-28T14:06:06;23.87;81.62
70300;HTU21D;57704;51.112;5.878;2023-07-28T14:08:32;23.72;81.53
70300;HTU21D;57704;51.112;5.878;2023-07-28T14:10:58;23.60;82.13
70300;HTU21D;57704;51.112;5.878;2023-07-28T14:13:24;23.51;82.01
70300;HTU21D;57704;51.112;5.878;2023-07-28T14:15:50;23.51;82.05
70300;HTU21D;57704;51.112;5.878;2023-07-28T14:18:17;23.58;81.76
70300;HTU21D;57704;51.112;5.878;2023-07-28T14:20:43;23.67;82.09
70300;HTU21D;57704;51.112;5.878;2023-07-28T14:23:26;23.80;81.51
70300;HTU21D;57704;51.112;5.878;2023-07-28T14:25:53;23.91;81.36
70300;HTU21D;57704;51.112;5.878;2023-07-28T14:28:20;24.08;81.59
70300;HTU21D;57704;51.112;5.878;2023-07-28T14:30:47;24.26;80.98
70300;HTU21D;57704;51.112;5.878;2023-07-28T14:33:14;24.30;79.99
70300;HTU21D;57704;51.112;5.878;2023-07-28T14:35:41;24.27;80.52
70300;HTU21D;57704;51.112;5.878;2023-07-28T14:38:08;24.20;80.39
70300;HTU21D;57704;51.112;5.878;2023-07-28T14:40:33;24.20;80.60
70300;HTU21D;57704;51.112;5.878;2023-07-28T14:42:59;24.33;81.39
70300;HTU21D;57704;51.112;5.878;2023-07-28T14:45:25;24.70;81.19
70300;HTU21D;57704;51.112;5.878;2023-07-28T14:47:51;25.09;79.67
70300;HTU21D;57704;51.112;5.878;2023-07-28T14:50:17;25.23;79.82
70300;HTU21D;57704;51.112;5.878;2023-07-28T14:52:43;25.38;80.23
70300;HTU21D;57704;51.112;5.878;2023-07-28T14:55:09;25.51;79.08
70300;HTU21D;57704;51.112;5.878;2023-07-28T14:57:35;25.72;79.66
70300;HTU21D;57704;51.112;5.878;2023-07-28T15:00:02;25.99;79.67
70300;HTU21D;57704;51.112;5.878;2023-07-28T15:02:30;26.31;78.75
70300;HTU21D;57704;51.112;5.878;2023-07-28T15:04:56;26.48;76.70
70300;HTU21D;57704;51.112;5.878;2023-07-28T15:07:22;26.39;78.08
70300;HTU21D;57704;51.112;5.878;2023-07-28T15:09:48;26.55;78.50
70300;HTU21D;57704;51.112;5.878;2023-07-28T15:12:14;26.73;77.41
70300;HTU21D;57704;51.112;5.878;2023-07-28T15:14:39;26.80;76.82
70300;HTU21D;57704;51.112;5.878;2023-07-28T15:17:06;26.70;75.38
70300;HTU21D;57704;51.112;5.878;2023-07-28T15:19:32;26.56;76.93
70300;HTU21D;57704;51.112;5.878;2023-07-28T15:21:57;26.47;76.95
70300;HTU21D;57704;51.112;5.878;2023-07-28T15:24:23;26.49;77.66
70300;HTU21D;57704;51.112;5.878;2023-07-28T15:26:49;26.58;77.29